sensor_id;sensor_type;location;lat;lon;timestamp;pressure;altitude;pressure_sealevel;temperature;humidity
71948;BME280;63257;55.082;38.772;2022-11-06T00:06:08;101157.53;;;1.07;64.23
71948;BME280;63257;55.082;38.772;2022-11-06T00:08:53;101150.59;;;1.08;64.30
71948;BME280;63257;55.082;38.772;2022-11-06T00:14:40;101154.06;;;1.08;64.32
71948;BME280;63257;55.082;38.772;2022-11-06T00:17:05;101151.44;;;1.02;64.43
71948;BME280;63257;55.082;38.772;2022-11-06T00:19:31;101151.34;;;0.87;64.07
71948;BME280;63257;55.082;38.772;2022-11-06T00:21:58;101148.69;;;0.80;64.75
71948;BME280;63257;55.082;38.772;2022-11-06T00:24:24;101152.13;;;0.76;65.12
71948;BME280;63257;55.082;38.772;2022-11-06T00:26:50;101153.03;;;0.81;64.76
71948;BME280;63257;55.082;38.772;2022-11-06T00:29:16;101149.63;;;0.89;64.85
71948;BME280;63257;55.082;38.772;2022-11-06T00:31:42;101147.94;;;0.95;64.49
71948;BME280;63257;55.082;38.772;2022-11-06T00:34:08;101129.59;;;0.72;65.26
71948;BME280;63257;55.082;38.772;2022-11-06T00:36:35;101166.06;;;0.88;65.30
71948;BME280;63257;55.082;38.772;2022-11-06T00:39:02;101152.22;;;0.87;65.01
71948;BME280;63257;55.082;38.772;2022-11-06T00:41:28;101173.78;;;0.72;65.01
71948;BME280;63257;55.082;38.772;2022-11-06T00:43:57;101159.00;;;0.68;64.67
71948;BME280;63257;55.082;38.772;2022-11-06T00:46:23;101156.41;;;0.66;65.42
71948;BME280;63257;55.082;38.772;2022-11-06T00:48:51;101138.22;;;0.66;65.19
71948;BME280;63257;55.082;38.772;2022-11-06T00:51:22;101150.38;;;0.69;65.71
71948;BME280;63257;55.082;38.772;2022-11-06T00:53:53;101098.19;;;0.38;65.39
71948;BME280;63257;55.082;38.772;2022-11-06T00:56:20;101145.16;;;0.67;66.01
71948;BME280;63257;55.082;38.772;2022-11-06T00:58:46;101150.38;;;0.71;65.73
71948;BME280;63257;55.082;38.772;2022-11-06T01:01:14;101149.59;;;0.84;65.07
71948;BME280;63257;55.082;38.772;2022-11-06T01:03:42;101153.06;;;0.83;64.85
71948;BME280;63257;55.082;38.772;2022-11-06T01:06:14;101134.78;;;0.72;65.22
71948;BME280;63257;55.082;38.772;2022-11-06T01:09:06;101145.16;;;0.67;66.16
71948;BME280;63257;55.082;38.772;2022-11-06T01:11:35;101148.69;;;0.77;66.19
71948;BME280;63257;55.082;38.772;2022-11-06T01:14:05;101146.03;;;0.71;65.86
71948;BME280;63257;55.082;38.772;2022-11-06T01:16:31;101125.16;;;0.54;65.87
71948;BME280;63257;55.082;38.772;2022-11-06T01:18:58;101121.72;;;0.61;65.49
71948;BME280;63257;55.082;38.772;2022-11-06T01:21:28;101140.91;;;0.79;65.21
71948;BME280;63257;55.082;38.772;2022-11-06T01:23:59;101130.50;;;0.82;65.58
71948;BME280;63257;55.082;38.772;2022-11-06T01:26:32;101120.09;;;0.80;65.28
71948;BME280;63257;55.082;38.772;2022-11-06T01:28:58;101094.88;;;0.62;65.28
71948;BME280;63257;55.082;38.772;2022-11-06T01:31:28;101140.97;;;0.91;65.25
71948;BME280;63257;55.082;38.772;2022-11-06T01:33:56;101136.63;;;0.93;65.56
71948;BME280;63257;55.082;38.772;2022-11-06T01:36:23;101128.81;;;0.90;65.53
71948;BME280;63257;55.082;38.772;2022-11-06T01:38:50;101128.88;;;1.01;65.07
71948;BME280;63257;55.082;38.772;2022-11-06T01:41:37;101121.88;;;0.84;65.34
71948;BME280;63257;55.082;38.772;2022-11-06T01:48:24;101143.63;;;0.99;65.80
71948;BME280;63257;55.082;38.772;2022-11-06T01:50:54;101113.22;;;0.84;65.55
71948;BME280;63257;55.082;38.772;2022-11-06T01:53:21;101134.03;;;0.89;65.50
71948;BME280;63257;55.082;38.772;2022-11-06T01:56:04;101126.09;;;0.67;66.08
71948;BME280;63257;55.082;38.772;2022-11-06T01:58:33;101119.13;;;0.60;66.59
71948;BME280;63257;55.082;38.772;2022-11-06T02:00:59;101132.22;;;0.77;66.42
71948;BME280;63257;55.082;38.772;2022-11-06T02:03:25;101126.16;;;0.76;66.17
71948;BME280;63257;55.082;38.772;2022-11-06T02:05:52;101137.47;;;0.84;66.54
71948;BME280;63257;55.082;38.772;2022-11-06T02:08:20;101120.09;;;0.77;66.99
71948;BME280;63257;55.082;38.772;2022-11-06T02:10:47;101136.53;;;0.76;66.70
71948;BME280;63257;55.082;38.772;2022-11-06T02:22:05;101124.22;;;0.47;67.50
71948;BME280;63257;55.082;38.772;2022-11-06T02:25:05;101144.09;;;0.44;67.61
71948;BME280;63257;55.082;38.772;2022-11-06T02:27:33;101148.44;;;0.42;68.17
71948;BME280;63257;55.082;38.772;2022-11-06T02:32:44;101144.06;;;0.35;67.81
71948;BME280;63257;55.082;38.772;2022-11-06T02:38:09;101144.88;;;0.29;67.98
71948;BME280;63257;55.082;38.772;2022-11-06T02:40:51;101125.63;;;0.05;68.18
71948;BME280;63257;55.082;38.772;2022-11-06T02:43:20;101122.25;;;0.12;68.35
71948;BME280;63257;55.082;38.772;2022-11-06T02:45:51;101135.44;;;0.37;68.49
71948;BME280;63257;55.082;38.772;2022-11-06T02:48:22;101143.25;;;0.46;67.74
71948;BME280;63257;55.082;38.772;2022-11-06T02:50:53;101137.13;;;0.38;67.81
71948;BME280;63257;55.082;38.772;2022-11-06T02:53:23;101129.34;;;0.35;68.20
71948;BME280;63257;55.082;38.772;2022-11-06T02:55:56;101138.91;;;0.41;68.44
71948;BME280;63257;55.082;38.772;2022-11-06T02:58:34;101140.69;;;0.48;67.97
71948;BME280;63257;55.082;38.772;2022-11-06T03:01:09;101131.91;;;0.29;68.23
71948;BME280;63257;55.082;38.772;2022-11-06T03:03:40;101137.84;;;0.15;67.69
71948;BME280;63257;55.082;38.772;2022-11-06T03:06:22;101122.91;;;-0.10;68.28
71948;BME280;63257;55.082;38.772;2022-11-06T03:08:57;101143.78;;;0.02;68.24
71948;BME280;63257;55.082;38.772;2022-11-06T03:11:34;101138.56;;;0.01;68.32
71948;BME280;63257;55.082;38.772;2022-11-06T03:16:57;101136.06;;;0.08;68.75
71948;BME280;63257;55.082;38.772;2022-11-06T03:20:03;101143.03;;;0.15;68.43
71948;BME280;63257;55.082;38.772;2022-11-06T03:22:48;101130.13;;;0.25;68.05
71948;BME280;63257;55.082;38.772;2022-11-06T03:27:57;101116.25;;;0.21;68.02
71948;BME280;63257;55.082;38.772;2022-11-06T03:30:25;101138.03;;;0.37;68.26
71948;BME280;63257;55.082;38.772;2022-11-06T03:33:20;101134.59;;;0.41;68.00
71948;BME280;63257;55.082;38.772;2022-11-06T03:36:11;101128.50;;;0.38;67.63
71948;BME280;63257;55.082;38.772;2022-11-06T03:38:42;101127.59;;;0.34;68.55
71948;BME280;63257;55.082;38.772;2022-11-06T03:41:18;101122.28;;;0.22;68.04
71948;BME280;63257;55.082;38.772;2022-11-06T03:43:46;101123.13;;;0.19;68.30
71948;BME280;63257;55.082;38.772;2022-11-06T03:46:18;101117.94;;;0.17;68.49
71948;BME280;63257;55.082;38.772;2022-11-06T03:49:00;101127.50;;;0.22;68.63
71948;BME280;63257;55.082;38.772;2022-11-06T03:51:39;101116.03;;;-0.02;68.58
71948;BME280;63257;55.082;38.772;2022-11-06T03:54:16;101108.25;;;-0.04;68.90
71948;BME280;63257;55.082;38.772;2022-11-06T03:56:55;101116.84;;;-0.12;69.07
71948;BME280;63257;55.082;38.772;2022-11-06T03:59:27;101108.22;;;-0.08;68.79
71948;BME280;63257;55.082;38.772;2022-11-06T04:01:55;101108.25;;;-0.05;68.53
71948;BME280;63257;55.082;38.772;2022-11-06T04:04:46;101117.81;;;0.02;68.00
71948;BME280;63257;55.082;38.772;2022-11-06T04:07:16;101066.41;;;-0.39;68.02
71948;BME280;63257;55.082;38.772;2022-11-06T04:09:51;101109.00;;;-0.14;67.99
71948;BME280;63257;55.082;38.772;2022-11-06T04:12:38;101124.63;;;-0.11;68.12
71948;BME280;63257;55.082;38.772;2022-11-06T04:15:32;101119.25;;;-0.26;67.93
71948;BME280;63257;55.082;38.772;2022-11-06T04:18:00;101121.03;;;-0.22;68.36
71948;BME280;63257;55.082;38.772;2022-11-06T04:20:34;101133.06;;;-0.32;68.67
71948;BME280;63257;55.082;38.772;2022-11-06T04:26:07;101134.06;;;-0.21;68.78
71948;BME280;63257;55.082;38.772;2022-11-06T04:34:29;101131.50;;;-0.13;68.40
71948;BME280;63257;55.082;38.772;2022-11-06T04:37:07;101135.94;;;-0.04;68.52
71948;BME280;63257;55.082;38.772;2022-11-06T04:39:50;101137.72;;;0.00;68.26
71948;BME280;63257;55.082;38.772;2022-11-06T04:42:35;101102.91;;;-0.21;68.13
71948;BME280;63257;55.082;38.772;2022-11-06T04:45:10;101136.00;;;0.07;67.89
71948;BME280;63257;55.082;38.772;2022-11-06T04:47:40;101131.59;;;-0.04;67.84
71948;BME280;63257;55.082;38.772;2022-11-06T04:50:08;101143.78;;;0.05;67.67
71948;BME280;63257;55.082;38.772;2022-11-06T04:52:37;101147.31;;;0.10;67.67
71948;BME280;63257;55.082;38.772;2022-11-06T04:55:10;101143.84;;;0.08;67.36
71948;BME280;63257;55.082;38.772;2022-11-06T04:57:38;101149.94;;;0.15;67.46
71948;BME280;63257;55.082;38.772;2022-11-06T05:00:12;101144.81;;;0.23;67.19
71948;BME280;63257;55.082;38.772;2022-11-06T05:06:57;101136.94;;;0.13;67.79
71948;BME280;63257;55.082;38.772;2022-11-06T05:09:23;101131.72;;;0.09;67.16
71948;BME280;63257;55.082;38.772;2022-11-06T05:20:30;101130.94;;;0.19;67.27
71948;BME280;63257;55.082;38.772;2022-11-06T05:27:15;101151.91;;;0.42;67.39
71948;BME280;63257;55.082;38.772;2022-11-06T05:29:41;101149.28;;;0.42;67.27
71948;BME280;63257;55.082;38.772;2022-11-06T05:32:07;101148.53;;;0.53;67.25
71948;BME280;63257;55.082;38.772;2022-11-06T05:34:32;101156.31;;;0.49;67.00
71948;BME280;63257;55.082;38.772;2022-11-06T05:41:17;101164.88;;;0.44;67.59
71948;BME280;63257;55.082;38.772;2022-11-06T05:43:44;101157.91;;;0.35;66.28
71948;BME280;63257;55.082;38.772;2022-11-06T05:46:10;101164.84;;;0.36;66.08
71948;BME280;63257;55.082;38.772;2022-11-06T05:56:23;101154.47;;;0.36;66.62
71948;BME280;63257;55.082;38.772;2022-11-06T05:58:48;101165.78;;;0.47;66.00
71948;BME280;63257;55.082;38.772;2022-11-06T06:01:20;101160.59;;;0.44;66.61
71948;BME280;63257;55.082;38.772;2022-11-06T06:03:46;101159.75;;;0.48;66.09
71948;BME280;63257;55.082;38.772;2022-11-06T06:06:12;101131.91;;;0.29;66.54
71948;BME280;63257;55.082;38.772;2022-11-06T06:08:37;101164.09;;;0.51;65.67
71948;BME280;63257;55.082;38.772;2022-11-06T06:11:06;101153.81;;;0.63;64.68
71948;BME280;63257;55.082;38.772;2022-11-06T06:13:34;101155.56;;;0.67;64.88
71948;BME280;63257;55.082;38.772;2022-11-06T06:16:02;101150.22;;;0.52;65.92
71948;BME280;63257;55.082;38.772;2022-11-06T06:18:28;101152.00;;;0.55;65.62
71948;BME280;63257;55.082;38.772;2022-11-06T06:20:56;101158.13;;;0.64;65.58
71948;BME280;63257;55.082;38.772;2022-11-06T06:23:23;101152.06;;;0.62;65.34
71948;BME280;63257;55.082;38.772;2022-11-06T06:25:49;101159.66;;;0.38;65.21
71948;BME280;63257;55.082;38.772;2022-11-06T06:28:15;101159.63;;;0.33;65.71
71948;BME280;63257;55.082;38.772;2022-11-06T06:30:41;101164.84;;;0.35;65.71
71948;BME280;63257;55.082;38.772;2022-11-06T06:33:06;101150.97;;;0.36;65.45
71948;BME280;63257;55.082;38.772;2022-11-06T06:35:32;101166.59;;;0.37;65.27
71948;BME280;63257;55.082;38.772;2022-11-06T06:37:59;101165.69;;;0.32;64.90
71948;BME280;63257;55.082;38.772;2022-11-06T06:40:26;101155.31;;;0.38;64.77
71948;BME280;63257;55.082;38.772;2022-11-06T06:42:55;101162.19;;;0.28;65.58
71948;BME280;63257;55.082;38.772;2022-11-06T06:45:21;101152.69;;;0.32;65.27
71948;BME280;63257;55.082;38.772;2022-11-06T06:47:48;101162.34;;;0.48;65.73
71948;BME280;63257;55.082;38.772;2022-11-06T06:50:13;101147.63;;;0.52;65.23
71948;BME280;63257;55.082;38.772;2022-11-06T06:52:39;101152.81;;;0.47;65.09
71948;BME280;63257;55.082;38.772;2022-11-06T06:55:06;101145.75;;;0.28;65.18
71948;BME280;63257;55.082;38.772;2022-11-06T06:57:31;101151.88;;;0.38;64.82
71948;BME280;63257;55.082;38.772;2022-11-06T06:59:57;101157.09;;;0.44;65.21
71948;BME280;63257;55.082;38.772;2022-11-06T07:02:23;101153.63;;;0.40;64.83
71948;BME280;63257;55.082;38.772;2022-11-06T07:04:50;101158.84;;;0.43;64.80
71948;BME280;63257;55.082;38.772;2022-11-06T07:07:16;101148.44;;;0.40;64.98
71948;BME280;63257;55.082;38.772;2022-11-06T07:09:42;101161.47;;;0.48;64.73
71948;BME280;63257;55.082;38.772;2022-11-06T07:12:08;101150.22;;;0.49;64.85
71948;BME280;63257;55.082;38.772;2022-11-06T07:14:34;101164.13;;;0.59;64.69
71948;BME280;63257;55.082;38.772;2022-11-06T07:17:00;101162.38;;;0.53;64.78
71948;BME280;63257;55.082;38.772;2022-11-06T07:19:27;101149.47;;;0.68;64.86
71948;BME280;63257;55.082;38.772;2022-11-06T07:21:52;101154.66;;;0.62;64.77
71948;BME280;63257;55.082;38.772;2022-11-06T07:24:18;101149.44;;;0.61;64.94
71948;BME280;63257;55.082;38.772;2022-11-06T07:26:45;101145.19;;;0.74;64.62
71948;BME280;63257;55.082;38.772;2022-11-06T07:29:11;101133.00;;;0.62;64.46
71948;BME280;63257;55.082;38.772;2022-11-06T07:31:37;101147.78;;;0.69;65.11
71948;BME280;63257;55.082;38.772;2022-11-06T07:34:03;101149.59;;;0.84;64.19
71948;BME280;63257;55.082;38.772;2022-11-06T07:36:29;101139.28;;;0.95;63.74
71948;BME280;63257;55.082;38.772;2022-11-06T07:38:57;101146.22;;;0.99;64.04
71948;BME280;63257;55.082;38.772;2022-11-06T07:41:23;101146.16;;;0.90;64.23
71948;BME280;63257;55.082;38.772;2022-11-06T07:43:48;101154.03;;;1.00;63.65
71948;BME280;63257;55.082;38.772;2022-11-06T07:46:14;101145.31;;;0.94;63.84
71948;BME280;63257;55.082;38.772;2022-11-06T07:48:40;101154.03;;;1.04;63.97
71948;BME280;63257;55.082;38.772;2022-11-06T07:51:08;101150.53;;;1.00;62.81
71948;BME280;63257;55.082;38.772;2022-11-06T07:53:35;101151.50;;;1.17;63.10
71948;BME280;63257;55.082;38.772;2022-11-06T07:56:01;101155.84;;;1.18;62.75
71948;BME280;63257;55.082;38.772;2022-11-06T07:58:27;101154.03;;;1.05;62.69
71948;BME280;63257;55.082;38.772;2022-11-06T08:00:55;101148.91;;;1.14;62.99
71948;BME280;63257;55.082;38.772;2022-11-06T08:03:22;101140.25;;;1.17;62.63
71948;BME280;63257;55.082;38.772;2022-11-06T08:05:49;101145.38;;;1.05;63.11
71948;BME280;63257;55.082;38.772;2022-11-06T08:08:15;101157.56;;;1.13;62.67
71948;BME280;63257;55.082;38.772;2022-11-06T08:10:41;101141.06;;;1.10;62.89
71948;BME280;63257;55.082;38.772;2022-11-06T08:13:16;101144.53;;;1.12;63.13
71948;BME280;63257;55.082;38.772;2022-11-06T08:15:42;101142.84;;;1.15;62.82
71948;BME280;63257;55.082;38.772;2022-11-06T08:18:10;101144.59;;;1.29;63.16
71948;BME280;63257;55.082;38.772;2022-11-06T08:20:37;101154.22;;;1.42;62.76
71948;BME280;63257;55.082;38.772;2022-11-06T08:23:06;101159.34;;;1.28;62.48
71948;BME280;63257;55.082;38.772;2022-11-06T08:25:32;101162.75;;;1.15;62.77
71948;BME280;63257;55.082;38.772;2022-11-06T08:28:00;101147.13;;;1.07;62.41
71948;BME280;63257;55.082;38.772;2022-11-06T08:30:27;101157.50;;;1.04;62.24
71948;BME280;63257;55.082;38.772;2022-11-06T08:32:54;101149.69;;;1.04;62.67
71948;BME280;63257;55.082;38.772;2022-11-06T08:35:21;101144.50;;;1.06;62.50
71948;BME280;63257;55.082;38.772;2022-11-06T08:37:46;101142.78;;;1.05;62.17
71948;BME280;63257;55.082;38.772;2022-11-06T08:40:12;101145.34;;;0.97;62.87
71948;BME280;63257;55.082;38.772;2022-11-06T08:42:38;101142.78;;;1.05;63.11
71948;BME280;63257;55.082;38.772;2022-11-06T08:45:05;101128.94;;;1.10;63.28
71948;BME280;63257;55.082;38.772;2022-11-06T08:47:31;101133.31;;;1.21;62.65
71948;BME280;63257;55.082;38.772;2022-11-06T08:49:57;101126.34;;;1.10;62.85
71948;BME280;63257;55.082;38.772;2022-11-06T08:52:22;101134.13;;;1.10;63.67
71948;BME280;63257;55.082;38.772;2022-11-06T08:54:50;101129.03;;;1.32;63.63
71948;BME280;63257;55.082;38.772;2022-11-06T08:57:16;101123.88;;;1.47;63.93
71948;BME280;63257;55.082;38.772;2022-11-06T08:59:42;101119.56;;;1.57;62.70
71948;BME280;63257;55.082;38.772;2022-11-06T09:02:12;101100.50;;;1.63;62.84
71948;BME280;63257;55.082;38.772;2022-11-06T09:04:39;101123.91;;;1.60;62.52
71948;BME280;63257;55.082;38.772;2022-11-06T09:07:05;101111.75;;;1.56;62.21
71948;BME280;63257;55.082;38.772;2022-11-06T09:09:32;101126.53;;;1.74;62.01
71948;BME280;63257;55.082;38.772;2022-11-06T09:12:01;101109.16;;;1.62;61.57
71948;BME280;63257;55.082;38.772;2022-11-06T09:14:28;101124.75;;;1.62;61.86
71948;BME280;63257;55.082;38.772;2022-11-06T09:16:53;101139.44;;;1.35;61.79
71948;BME280;63257;55.082;38.772;2022-11-06T09:19:19;101128.09;;;1.17;62.33
71948;BME280;63257;55.082;38.772;2022-11-06T09:21:45;101125.44;;;1.10;62.43
71948;BME280;63257;55.082;38.772;2022-11-06T09:24:11;101127.19;;;1.03;63.11
71948;BME280;63257;55.082;38.772;2022-11-06T09:26:37;101135.00;;;1.14;63.38
71948;BME280;63257;55.082;38.772;2022-11-06T09:29:03;101126.34;;;1.10;63.49
71948;BME280;63257;55.082;38.772;2022-11-06T09:31:29;101132.34;;;1.00;63.88
71948;BME280;63257;55.082;38.772;2022-11-06T09:33:56;101136.84;;;1.32;64.12
71948;BME280;63257;55.082;38.772;2022-11-06T09:36:22;101121.22;;;1.33;63.62
71948;BME280;63257;55.082;38.772;2022-11-06T09:38:48;101127.38;;;1.56;62.52
71948;BME280;63257;55.082;38.772;2022-11-06T09:41:31;101130.81;;;1.50;62.48
71948;BME280;63257;55.082;38.772;2022-11-06T09:46:36;101133.38;;;1.38;62.63
71948;BME280;63257;55.082;38.772;2022-11-06T09:49:05;101135.94;;;1.31;63.41
71948;BME280;63257;55.082;38.772;2022-11-06T09:51:40;101133.34;;;1.24;63.57
71948;BME280;63257;55.082;38.772;2022-11-06T09:54:22;101122.03;;;1.25;63.20
71948;BME280;63257;55.082;38.772;2022-11-06T09:56:54;101115.97;;;1.23;63.38
71948;BME280;63257;55.082;38.772;2022-11-06T09:59:22;101118.50;;;1.02;63.48
71948;BME280;63257;55.082;38.772;2022-11-06T10:01:57;101117.56;;;0.90;64.02
71948;BME280;63257;55.082;38.772;2022-11-06T10:09:49;101104.63;;;1.08;63.93
71948;BME280;63257;55.082;38.772;2022-11-06T10:12:34;101099.38;;;0.97;63.76
71948;BME280;63257;55.082;38.772;2022-11-06T10:15:21;101107.28;;;1.13;64.42
71948;BME280;63257;55.082;38.772;2022-11-06T10:20:52;101096.97;;;1.42;63.94
71948;BME280;63257;55.082;38.772;2022-11-06T10:23:26;101096.09;;;1.42;62.82
71948;BME280;63257;55.082;38.772;2022-11-06T10:31:38;101105.56;;;1.21;64.07
71948;BME280;63257;55.082;38.772;2022-11-06T10:34:14;101095.22;;;1.38;63.62
71948;BME280;63257;55.082;38.772;2022-11-06T10:37:03;101092.66;;;1.44;63.65
71948;BME280;63257;55.082;38.772;2022-11-06T10:39:32;101088.34;;;1.59;63.33
71948;BME280;63257;55.082;38.772;2022-11-06T10:42:10;101087.47;;;1.66;62.99
71948;BME280;63257;55.082;38.772;2022-11-06T10:44:43;101081.41;;;1.62;62.56
71948;BME280;63257;55.082;38.772;2022-11-06T10:47:17;101091.81;;;1.70;62.37
71948;BME280;63257;55.082;38.772;2022-11-06T10:49:48;101070.13;;;1.66;62.18
71948;BME280;63257;55.082;38.772;2022-11-06T11:00:19;101082.13;;;1.18;62.83
71948;BME280;63257;55.082;38.772;2022-11-06T11:02:49;101082.22;;;1.37;62.56
71948;BME280;63257;55.082;38.772;2022-11-06T11:05:19;101083.06;;;1.39;62.55
71948;BME280;63257;55.082;38.772;2022-11-06T11:07:47;101070.06;;;1.34;63.20
71948;BME280;63257;55.082;38.772;2022-11-06T11:12:55;101058.72;;;1.13;63.49
71948;BME280;63257;55.082;38.772;2022-11-06T11:15:24;101083.06;;;1.31;63.76
71948;BME280;63257;55.082;38.772;2022-11-06T11:20:41;101084.88;;;1.57;62.89
71948;BME280;63257;55.082;38.772;2022-11-06T11:23:23;101081.38;;;1.58;62.26
71948;BME280;63257;55.082;38.772;2022-11-06T11:26:16;101096.97;;;1.39;62.59
71948;BME280;63257;55.082;38.772;2022-11-06T11:28:59;101092.56;;;1.23;63.44
71948;BME280;63257;55.082;38.772;2022-11-06T11:31:31;101089.00;;;0.97;63.89
71948;BME280;63257;55.082;38.772;2022-11-06T11:34:04;101088.13;;;1.00;64.12
71948;BME280;63257;55.082;38.772;2022-11-06T11:36:56;101088.97;;;0.91;64.28
71948;BME280;63257;55.082;38.772;2022-11-06T11:39:29;101054.22;;;0.67;64.45
71948;BME280;63257;55.082;38.772;2022-11-06T11:42:25;101082.88;;;0.84;64.67
71948;BME280;63257;55.082;38.772;2022-11-06T11:47:34;101103.69;;;0.88;65.13
71948;BME280;63257;55.082;38.772;2022-11-06T11:52:44;101098.47;;;0.84;64.22
71948;BME280;63257;55.082;38.772;2022-11-06T11:55:21;101086.34;;;0.85;64.44
71948;BME280;63257;55.082;38.772;2022-11-06T11:57:52;101084.63;;;0.92;64.47
71948;BME280;63257;55.082;38.772;2022-11-06T12:00:20;101081.22;;;1.04;64.19
71948;BME280;63257;55.082;38.772;2022-11-06T12:02:52;101091.69;;;1.13;64.22
71948;BME280;63257;55.082;38.772;2022-11-06T12:05:23;101037.78;;;0.81;64.31
71948;BME280;63257;55.082;38.772;2022-11-06T12:07:54;101079.47;;;1.01;64.27
71948;BME280;63257;55.082;38.772;2022-11-06T12:13:08;101063.06;;;1.14;64.91
71948;BME280;63257;55.082;38.772;2022-11-06T12:15:43;101077.88;;;1.34;64.76
71948;BME280;63257;55.082;38.772;2022-11-06T12:18:13;101049.22;;;1.20;64.33
71948;BME280;63257;55.082;38.772;2022-11-06T12:26:31;101065.78;;;1.61;64.20
71948;BME280;63257;55.082;38.772;2022-11-06T12:29:10;101070.09;;;1.42;63.82
71948;BME280;63257;55.082;38.772;2022-11-06T12:31:44;101066.59;;;1.35;63.97
71948;BME280;63257;55.082;38.772;2022-11-06T12:39:42;101077.81;;;1.18;64.49
71948;BME280;63257;55.082;38.772;2022-11-06T12:42:12;101076.06;;;1.14;64.68
71948;BME280;63257;55.082;38.772;2022-11-06T12:44:40;101068.22;;;1.04;64.77
71948;BME280;63257;55.082;38.772;2022-11-06T12:49:55;101060.31;;;0.77;65.26
71948;BME280;63257;55.082;38.772;2022-11-06T12:55:50;101053.31;;;0.61;65.38
71948;BME280;63257;55.082;38.772;2022-11-06T12:58:49;101069.75;;;0.64;65.57
71948;BME280;63257;55.082;38.772;2022-11-06T13:01:43;101068.84;;;0.53;66.05
71948;BME280;63257;55.082;38.772;2022-11-06T13:15:20;101044.69;;;0.68;66.60
71948;BME280;63257;55.082;38.772;2022-11-06T13:23:03;101054.31;;;0.92;66.40
71948;BME280;63257;55.082;38.772;2022-11-06T13:25:40;101029.19;;;0.88;66.80
71948;BME280;63257;55.082;38.772;2022-11-06T13:30:43;101043.09;;;1.06;65.95
71948;BME280;63257;55.082;38.772;2022-11-06T13:35:36;101024.84;;;0.92;66.65
71948;BME280;63257;55.082;38.772;2022-11-06T13:38:44;101022.25;;;0.93;66.26
71948;BME280;63257;55.082;38.772;2022-11-06T13:41:20;101037.00;;;0.93;66.74
71948;BME280;63257;55.082;38.772;2022-11-06T13:44:02;101011.84;;;0.89;66.66
71948;BME280;63257;55.082;38.772;2022-11-06T13:46:41;101007.56;;;1.03;66.89
71948;BME280;63257;55.082;38.772;2022-11-06T13:49:41;101020.56;;;1.09;66.28
71948;BME280;63257;55.082;38.772;2022-11-06T13:52:24;101022.28;;;1.04;66.75
71948;BME280;63257;55.082;38.772;2022-11-06T13:57:54;101035.22;;;0.82;67.48
71948;BME280;63257;55.082;38.772;2022-11-06T14:00:39;101033.47;;;0.81;67.79
71948;BME280;63257;55.082;38.772;2022-11-06T14:05:56;101039.47;;;0.68;68.09
71948;BME280;63257;55.082;38.772;2022-11-06T14:08:27;101032.47;;;0.55;67.77
71948;BME280;63257;55.082;38.772;2022-11-06T14:11:05;101024.69;;;0.53;68.05
71948;BME280;63257;55.082;38.772;2022-11-06T14:13:35;101029.06;;;0.65;68.07
71948;BME280;63257;55.082;38.772;2022-11-06T14:16:24;101026.50;;;0.71;68.09
71948;BME280;63257;55.082;38.772;2022-11-06T14:19:28;101023.94;;;0.77;67.95
71948;BME280;63257;55.082;38.772;2022-11-06T14:24:36;101025.59;;;0.64;68.58
71948;BME280;63257;55.082;38.772;2022-11-06T14:27:05;101013.44;;;0.57;68.43
71948;BME280;63257;55.082;38.772;2022-11-06T14:32:31;101016.09;;;0.65;68.81
71948;BME280;63257;55.082;38.772;2022-11-06T14:35:29;101011.75;;;0.64;68.79
71948;BME280;63257;55.082;38.772;2022-11-06T14:37:45;100997.91;;;0.68;68.29
71948;BME280;63257;55.082;38.772;2022-11-06T14:40:13;101010.91;;;0.70;68.21
71948;BME280;63257;55.082;38.772;2022-11-06T14:42:44;101018.75;;;0.76;68.76
71948;BME280;63257;55.082;38.772;2022-11-06T14:52:59;101014.38;;;0.72;68.46
71948;BME280;63257;55.082;38.772;2022-11-06T14:55:37;101016.03;;;0.49;68.41
71948;BME280;63257;55.082;38.772;2022-11-06T14:58:18;101015.16;;;0.54;68.64
71948;BME280;63257;55.082;38.772;2022-11-06T15:11:59;100996.16;;;0.61;68.89
71948;BME280;63257;55.082;38.772;2022-11-06T15:17:11;100996.88;;;0.37;69.12
71948;BME280;63257;55.082;38.772;2022-11-06T15:19:45;101009.94;;;0.49;69.21
71948;BME280;63257;55.082;38.772;2022-11-06T15:22:30;101015.09;;;0.41;68.86
71948;BME280;63257;55.082;38.772;2022-11-06T15:25:23;101022.00;;;0.42;69.34
71948;BME280;63257;55.082;38.772;2022-11-06T15:27:59;101017.56;;;0.20;69.08
71948;BME280;63257;55.082;38.772;2022-11-06T15:30:37;100981.91;;;-0.03;69.72
71948;BME280;63257;55.082;38.772;2022-11-06T15:33:10;101021.03;;;0.20;70.00
71948;BME280;63257;55.082;38.772;2022-11-06T15:35:38;101000.22;;;0.14;69.99
71948;BME280;63257;55.082;38.772;2022-11-06T15:38:17;100994.19;;;0.16;69.91
71948;BME280;63257;55.082;38.772;2022-11-06T15:40:46;101006.34;;;0.25;70.11
71948;BME280;63257;55.082;38.772;2022-11-06T15:45:42;100995.81;;;0.05;69.77
71948;BME280;63257;55.082;38.772;2022-11-06T15:48:34;100995.88;;;0.11;70.03
71948;BME280;63257;55.082;38.772;2022-11-06T15:51:22;100998.47;;;0.14;70.33
71948;BME280;63257;55.082;38.772;2022-11-06T15:53:48;100982.97;;;0.24;69.97
71948;BME280;63257;55.082;38.772;2022-11-06T15:56:16;100989.91;;;0.29;70.32
71948;BME280;63257;55.082;38.772;2022-11-06T15:59:02;100988.19;;;0.31;69.94
71948;BME280;63257;55.082;38.772;2022-11-06T16:01:35;100926.56;;;-0.01;70.37
71948;BME280;63257;55.082;38.772;2022-11-06T16:04:10;100967.38;;;0.24;70.02
71948;BME280;63257;55.082;38.772;2022-11-06T16:06:39;100987.38;;;0.40;70.12
71948;BME280;63257;55.082;38.772;2022-11-06T16:09:18;100965.66;;;0.23;70.03
71948;BME280;63257;55.082;38.772;2022-11-06T16:11:50;100983.06;;;0.44;70.01
71948;BME280;63257;55.082;38.772;2022-11-06T16:14:17;100953.50;;;0.20;69.81
71948;BME280;63257;55.082;38.772;2022-11-06T16:16:49;100928.38;;;0.11;70.14